createdAt,value
2022-10-14T00:01:04.805Z,25.50
2022-10-14T00:03:35.795Z,25.73
2022-10-14T00:06:07.073Z,25.20
2022-10-14T00:08:36.416Z,27.30
2022-10-14T00:11:10.936Z,27.67
2022-10-14T00:13:40.576Z,25.45
2022-10-14T00:16:17.796Z,26.70
2022-10-14T00:18:46.961Z,27.57
2022-10-14T00:21:16.556Z,26.83
2022-10-14T00:23:45.968Z,28.30
2022-10-14T00:26:22.369Z,29.95
2022-10-14T00:28:52.287Z,27.73
2022-10-14T00:31:22.689Z,28.65
2022-10-14T00:33:51.792Z,28.73
2022-10-14T00:36:23.089Z,28.17
2022-10-14T00:38:53.294Z,29.95
2022-10-14T00:41:26.774Z,31.20
2022-10-14T00:44:00.447Z,29.58
2022-10-14T00:46:31.636Z,29.80
2022-10-14T00:49:08.193Z,29.70
2022-10-14T00:51:38.706Z,30.23
2022-10-14T00:54:08.118Z,31.90
2022-10-14T00:56:39.190Z,31.30
2022-10-14T00:59:13.470Z,28.83
2022-10-14T01:01:42.727Z,28.50
2022-10-14T01:04:12.058Z,30.97
2022-10-14T01:06:50.012Z,29.73
2022-10-14T01:09:28.951Z,29.97
2022-10-14T01:12:28.180Z,28.23
2022-10-14T01:15:05.331Z,27.27
2022-10-14T01:17:44.485Z,28.47
2022-10-14T01:20:38.989Z,27.73
2022-10-14T01:23:29.748Z,28.45
2022-10-14T01:26:10.908Z,29.10
2022-10-14T01:28:52.501Z,29.23
2022-10-14T01:31:25.660Z,27.85
2022-10-14T01:34:00.099Z,26.00
2022-10-14T01:36:38.534Z,26.98
2022-10-14T01:39:15.144Z,28.30
2022-10-14T01:41:49.440Z,27.67
2022-10-14T01:44:21.297Z,26.95
2022-10-14T01:46:55.430Z,27.93
2022-10-14T01:49:30.186Z,28.45
2022-10-14T01:52:04.184Z,28.73
2022-10-14T01:54:37.761Z,27.83
2022-10-14T01:57:11.736Z,28.77
2022-10-14T01:59:43.195Z,28.77
2022-10-14T02:02:15.064Z,29.27
2022-10-14T02:04:44.216Z,28.10
2022-10-14T02:07:18.854Z,28.38
2022-10-14T02:09:58.085Z,26.42
2022-10-14T02:12:39.965Z,27.13
2022-10-14T02:15:19.359Z,27.13
2022-10-14T02:17:56.191Z,30.00
2022-10-14T02:20:29.941Z,27.90
2022-10-14T02:23:02.076Z,28.13
2022-10-14T02:25:36.194Z,27.10
2022-10-14T02:28:08.763Z,27.85
2022-10-14T02:30:42.099Z,27.30
2022-10-14T02:33:13.654Z,26.43
2022-10-14T02:35:44.742Z,29.73
2022-10-14T02:38:13.846Z,27.10
2022-10-14T02:40:47.235Z,27.88
2022-10-14T02:43:16.392Z,30.10
2022-10-14T02:45:45.899Z,29.30
2022-10-14T02:48:16.826Z,27.73
2022-10-14T02:50:46.197Z,28.75
2022-10-14T02:53:18.800Z,27.65
2022-10-14T02:55:48.175Z,28.60
2022-10-14T02:58:17.396Z,29.20
2022-10-14T03:00:46.504Z,29.60
2022-10-14T03:03:17.063Z,29.70
2022-10-14T03:05:46.314Z,28.80
2022-10-14T03:08:16.449Z,28.65
2022-10-14T03:10:49.171Z,27.48
2022-10-14T03:13:18.878Z,29.15
2022-10-14T03:15:50.975Z,28.08
2022-10-14T03:18:23.110Z,29.30
2022-10-14T03:20:57.237Z,30.63
2022-10-14T03:23:33.430Z,31.95
2022-10-14T03:26:02.653Z,30.95
2022-10-14T03:28:37.436Z,29.17
2022-10-14T03:31:26.945Z,29.60
2022-10-14T03:34:29.535Z,28.33
2022-10-14T03:37:07.988Z,30.90
2022-10-14T03:39:46.303Z,28.03
2022-10-14T03:42:16.750Z,29.17
2022-10-14T03:44:49.438Z,28.23
2022-10-14T03:47:28.724Z,32.90
2022-10-14T03:49:59.359Z,31.30
2022-10-14T03:52:55.464Z,30.67
2022-10-14T03:55:35.573Z,27.83
2022-10-14T03:58:06.852Z,26.83
2022-10-14T04:00:37.478Z,29.37
2022-10-14T04:03:35.935Z,27.30
2022-10-14T04:06:06.858Z,30.47
2022-10-14T04:08:36.010Z,30.13
2022-10-14T04:11:17.626Z,28.47
2022-10-14T04:13:47.416Z,30.57
2022-10-14T04:16:17.016Z,28.53
2022-10-14T04:19:09.840Z,30.83
2022-10-14T04:21:40.426Z,34.07
2022-10-14T04:24:11.218Z,32.00
2022-10-14T04:26:47.588Z,32.50
2022-10-14T04:29:24.765Z,36.27
2022-10-14T04:31:59.928Z,33.47
2022-10-14T04:34:29.157Z,30.87
2022-10-14T04:36:59.642Z,31.30
2022-10-14T04:39:51.579Z,33.27
2022-10-14T04:42:21.259Z,32.87
2022-10-14T04:44:54.001Z,31.90
2022-10-14T04:47:32.815Z,33.97
2022-10-14T04:50:04.381Z,32.83
2022-10-14T04:52:36.543Z,35.20
2022-10-14T04:55:13.731Z,31.57
2022-10-14T04:57:45.051Z,32.33
2022-10-14T05:00:17.738Z,32.53
2022-10-14T05:02:54.944Z,33.07
2022-10-14T05:05:31.093Z,30.37
2022-10-14T05:08:04.401Z,30.97
2022-10-14T05:10:40.463Z,29.57
2022-10-14T05:13:13.774Z,31.23
2022-10-14T05:15:54.898Z,27.57
2022-10-14T05:18:24.475Z,27.70
2022-10-14T05:21:10.464Z,29.57
2022-10-14T05:24:19.195Z,26.83
2022-10-14T05:26:49.485Z,26.90
2022-10-14T05:29:19.157Z,29.53
2022-10-14T05:31:51.422Z,29.63
2022-10-14T05:34:28.214Z,25.57
2022-10-14T05:36:58.976Z,26.60
2022-10-14T05:39:32.249Z,27.33
2022-10-14T05:42:02.833Z,26.40
2022-10-14T05:44:33.075Z,27.73
2022-10-14T05:47:02.244Z,28.03
2022-10-14T05:49:31.655Z,26.60
2022-10-14T05:52:05.523Z,24.77
2022-10-14T05:54:37.091Z,25.07
2022-10-14T05:57:08.380Z,25.43
2022-10-14T05:59:37.843Z,27.93
2022-10-14T06:02:07.097Z,54.13
2022-10-14T06:04:36.651Z,28.40
2022-10-14T06:07:06.355Z,30.43
2022-10-14T06:09:39.782Z,36.20
2022-10-14T06:12:09.859Z,40.40
2022-10-14T06:14:40.001Z,36.27
2022-10-14T06:17:09.544Z,34.50
2022-10-14T06:19:39.680Z,36.63
2022-10-14T06:22:08.864Z,30.10
2022-10-14T06:24:39.543Z,30.77
2022-10-14T06:27:08.745Z,29.07
2022-10-14T06:29:39.199Z,29.10
2022-10-14T06:32:09.450Z,30.63
2022-10-14T06:34:38.587Z,25.13
2022-10-14T06:37:07.579Z,24.43
2022-10-14T06:39:36.595Z,25.20
2022-10-14T06:42:12.082Z,27.03
2022-10-14T06:44:42.119Z,26.80
2022-10-14T06:47:11.166Z,25.77
2022-10-14T06:49:40.283Z,24.37
2022-10-14T06:52:09.602Z,24.40
2022-10-14T06:54:39.678Z,23.60
2022-10-14T06:57:10.946Z,23.63
2022-10-14T06:59:40.508Z,23.30
2022-10-14T07:02:10.343Z,23.83
2022-10-14T07:04:40.442Z,24.70
2022-10-14T07:07:10.012Z,23.95
2022-10-14T07:09:39.073Z,24.30
2022-10-14T07:12:09.693Z,26.65
2022-10-14T07:14:38.798Z,28.50
2022-10-14T07:17:09.338Z,26.70
2022-10-14T07:19:38.456Z,27.13
2022-10-14T07:22:07.589Z,27.77
2022-10-14T07:24:36.703Z,29.13
2022-10-14T07:27:05.942Z,28.00
2022-10-14T07:29:36.546Z,27.23
2022-10-14T07:32:06.133Z,26.27
2022-10-14T07:34:35.223Z,26.20
2022-10-14T07:37:04.655Z,25.10
2022-10-14T07:39:35.727Z,26.70
2022-10-14T07:42:04.962Z,26.67
2022-10-14T07:44:35.575Z,26.42
2022-10-14T07:47:06.168Z,27.17
2022-10-14T07:49:36.457Z,29.23
2022-10-14T07:52:05.837Z,29.40
2022-10-14T07:54:35.025Z,27.50
2022-10-14T07:57:04.487Z,26.20
2022-10-14T07:59:33.548Z,29.40
2022-10-14T08:02:05.460Z,31.80
2022-10-14T08:04:34.501Z,35.15
2022-10-14T08:07:04.934Z,30.70
2022-10-14T08:09:37.290Z,29.58
2022-10-14T08:12:06.765Z,30.10
2022-10-14T08:14:37.014Z,30.48
2022-10-14T08:17:07.527Z,28.33
2022-10-14T08:19:36.684Z,32.22
2022-10-14T08:22:05.735Z,28.27
2022-10-14T08:24:34.791Z,31.02
2022-10-14T08:27:05.835Z,28.88
2022-10-14T08:29:35.214Z,30.40
2022-10-14T08:32:04.160Z,34.60
2022-10-14T08:34:34.672Z,28.38
2022-10-14T08:37:03.984Z,27.67
2022-10-14T08:39:32.968Z,29.00
2022-10-14T08:42:18.207Z,32.53
2022-10-14T08:44:53.182Z,31.05
2022-10-14T08:47:27.175Z,31.13
2022-10-14T08:50:03.481Z,28.75
2022-10-14T08:52:39.137Z,29.70
2022-10-14T08:55:22.059Z,29.42
2022-10-14T08:57:55.188Z,29.80
2022-10-14T09:00:24.457Z,28.25
2022-10-14T09:02:54.172Z,29.17
2022-10-14T09:05:27.455Z,28.50
2022-10-14T09:07:58.508Z,29.83
2022-10-14T09:10:33.365Z,32.22
2022-10-14T09:13:10.532Z,27.98
2022-10-14T09:15:42.733Z,28.92
2022-10-14T09:18:24.576Z,28.88
2022-10-14T09:20:56.799Z,27.83
2022-10-14T09:23:27.019Z,26.25
2022-10-14T09:26:02.646Z,27.48
2022-10-14T09:28:38.712Z,25.52
2022-10-14T09:31:11.815Z,26.63
2022-10-14T09:33:42.639Z,27.17
2022-10-14T09:36:18.538Z,29.40
2022-10-14T09:38:51.914Z,27.42
2022-10-14T09:41:26.991Z,29.50
2022-10-14T09:44:18.697Z,25.35
2022-10-14T09:46:55.327Z,26.58
2022-10-14T09:49:35.477Z,30.63
2022-10-14T09:52:06.190Z,26.35
2022-10-14T09:54:36.890Z,30.38
2022-10-14T09:57:08.699Z,27.70
2022-10-14T09:59:50.979Z,28.90
2022-10-14T10:02:24.676Z,28.55
2022-10-14T10:04:58.313Z,25.50
2022-10-14T10:07:31.957Z,29.88
2022-10-14T10:10:02.845Z,30.05
2022-10-14T10:12:33.533Z,28.45
2022-10-14T10:15:05.072Z,27.50
2022-10-14T10:17:36.211Z,27.98
2022-10-14T10:20:18.158Z,27.58
2022-10-14T10:22:49.226Z,28.10
2022-10-14T10:25:26.595Z,28.17
2022-10-14T10:27:59.414Z,28.67
2022-10-14T10:30:33.746Z,27.73
2022-10-14T10:33:22.655Z,25.92
2022-10-14T10:36:02.358Z,27.92
2022-10-14T10:38:36.292Z,28.80
2022-10-14T10:41:18.581Z,29.23
2022-10-14T10:44:12.454Z,27.52
2022-10-14T10:47:01.132Z,25.45
2022-10-14T10:49:50.435Z,29.23
2022-10-14T10:52:31.019Z,23.98
2022-10-14T10:55:10.573Z,26.27
2022-10-14T10:57:53.086Z,26.50
2022-10-14T11:03:09.990Z,22.17
2022-10-14T11:05:51.558Z,23.88
2022-10-14T11:08:56.785Z,22.63
2022-10-14T11:11:48.039Z,27.95
2022-10-14T11:14:42.187Z,25.50
2022-10-14T11:17:16.179Z,24.10
2022-10-14T11:19:54.439Z,23.25
2022-10-14T11:22:39.119Z,24.08
2022-10-14T11:25:22.976Z,21.88
2022-10-14T11:28:03.025Z,25.98
2022-10-14T11:30:43.560Z,24.52
2022-10-14T11:33:25.686Z,23.13
2022-10-14T11:36:02.034Z,25.23
2022-10-14T11:38:54.624Z,23.42
2022-10-14T11:41:32.596Z,27.13
2022-10-14T11:44:09.406Z,28.75
2022-10-14T11:46:42.635Z,23.45
2022-10-14T11:49:20.205Z,24.50
2022-10-14T11:51:54.490Z,25.05
2022-10-14T11:54:30.219Z,22.00
2022-10-14T11:57:04.090Z,26.73
2022-10-14T12:00:01.425Z,22.63
2022-10-14T12:02:48.391Z,22.60
2022-10-14T12:05:24.341Z,24.20
2022-10-14T12:08:06.799Z,22.65
2022-10-14T12:10:40.542Z,22.42
2022-10-14T12:13:15.573Z,23.80
2022-10-14T12:15:50.991Z,23.45
2022-10-14T12:18:20.780Z,20.67
2022-10-14T12:20:57.021Z,20.83
2022-10-14T12:23:33.051Z,23.98
2022-10-14T12:26:08.587Z,21.95
2022-10-14T12:28:39.340Z,23.77
2022-10-14T12:31:36.836Z,23.85
2022-10-14T12:34:28.740Z,24.88
2022-10-14T12:36:58.550Z,24.23
2022-10-14T12:39:33.514Z,22.17
2022-10-14T12:42:05.896Z,24.38
2022-10-14T12:44:46.370Z,25.05
2022-10-14T12:47:22.441Z,25.83
2022-10-14T12:49:56.460Z,22.27
2022-10-14T12:52:31.055Z,26.17
2022-10-14T12:55:05.337Z,22.42
2022-10-14T12:57:38.707Z,20.77
2022-10-14T13:00:31.916Z,22.98
2022-10-14T13:03:05.220Z,21.45
2022-10-14T13:05:41.799Z,21.73
2022-10-14T13:08:27.266Z,22.48
2022-10-14T13:11:11.971Z,20.40
2022-10-14T13:14:01.525Z,22.83
2022-10-14T13:17:06.738Z,27.70
2022-10-14T13:19:54.723Z,25.75
2022-10-14T13:22:43.830Z,21.23
2022-10-14T13:25:19.468Z,25.15
2022-10-14T13:28:13.137Z,25.33
2022-10-14T13:30:52.795Z,22.98
2022-10-14T13:33:27.073Z,24.33
2022-10-14T13:36:05.897Z,23.65
2022-10-14T13:38:37.179Z,28.25
2022-10-14T13:41:07.945Z,28.23
2022-10-14T13:43:40.698Z,23.88
2022-10-14T13:46:15.442Z,23.45
2022-10-14T13:48:48.336Z,21.70
2022-10-14T13:51:37.317Z,23.33
2022-10-14T13:54:19.363Z,22.83
2022-10-14T14:02:48.091Z,25.40
2022-10-14T14:11:15.667Z,23.50
2022-10-14T14:13:55.833Z,26.05
2022-10-14T14:16:32.375Z,21.90
2022-10-14T14:19:10.274Z,25.95
2022-10-14T14:21:40.060Z,28.25
2022-10-14T14:24:19.663Z,22.27
2022-10-14T14:26:59.449Z,21.48
2022-10-14T14:29:30.609Z,25.00
2022-10-14T14:32:08.748Z,23.67
2022-10-14T14:34:40.199Z,25.17
2022-10-14T14:40:19.375Z,23.17
2022-10-14T14:42:51.725Z,23.88
2022-10-14T14:45:25.670Z,28.30
2022-10-14T14:47:57.024Z,24.13
2022-10-14T14:50:31.270Z,23.45
2022-10-14T14:53:05.475Z,22.45
2022-10-14T14:55:43.384Z,23.83
2022-10-14T14:58:26.164Z,26.50
2022-10-14T15:00:55.781Z,23.30
2022-10-14T15:03:26.781Z,21.80
2022-10-14T15:06:02.008Z,23.13
2022-10-14T15:08:33.973Z,24.98
2022-10-14T15:11:04.984Z,26.20
2022-10-14T15:13:46.610Z,23.83
2022-10-14T15:16:15.659Z,25.25
2022-10-14T15:18:44.641Z,25.45
2022-10-14T15:21:20.913Z,26.67
2022-10-14T15:24:03.561Z,24.60
2022-10-14T15:26:41.549Z,28.88
2022-10-14T15:29:17.056Z,26.77
2022-10-14T15:31:47.486Z,27.70
2022-10-14T15:34:22.674Z,26.77
2022-10-14T15:36:54.288Z,27.42
2022-10-14T15:39:24.157Z,31.00
2022-10-14T15:41:54.655Z,26.65
2022-10-14T15:44:23.780Z,29.52
2022-10-14T15:47:10.297Z,29.70
2022-10-14T15:49:46.714Z,27.20
2022-10-14T15:52:16.835Z,26.35
2022-10-14T15:54:47.791Z,26.10
2022-10-14T15:57:19.137Z,29.50
2022-10-14T15:59:53.018Z,26.70
2022-10-14T16:02:35.502Z,28.38
2022-10-14T16:05:20.738Z,28.83
2022-10-14T16:07:50.477Z,27.25
2022-10-14T16:10:22.284Z,29.10
2022-10-14T16:12:52.997Z,36.83
2022-10-14T16:15:34.479Z,29.38
2022-10-14T16:18:03.596Z,27.85
2022-10-14T16:20:33.191Z,27.88
2022-10-14T16:23:04.535Z,27.67
2022-10-14T16:25:39.092Z,27.17
2022-10-14T16:28:10.437Z,28.35
2022-10-14T16:30:41.609Z,28.95
2022-10-14T16:35:54.854Z,32.65
2022-10-14T16:38:25.168Z,27.83
2022-10-14T16:40:57.947Z,29.85
2022-10-14T16:43:29.026Z,27.80
2022-10-14T16:46:00.587Z,32.25
2022-10-14T16:48:29.661Z,30.00
2022-10-14T16:50:58.886Z,29.27
2022-10-14T16:53:43.773Z,28.27
2022-10-14T16:56:33.148Z,34.85
2022-10-14T16:59:04.022Z,45.13
2022-10-14T17:01:33.610Z,38.83
2022-10-14T17:04:04.213Z,36.65
2022-10-14T17:06:33.313Z,36.97
2022-10-14T17:09:02.423Z,41.22
2022-10-14T17:11:31.520Z,41.42
2022-10-14T17:14:03.264Z,32.33
2022-10-14T17:16:32.423Z,40.95
2022-10-14T17:19:03.187Z,34.22
2022-10-14T17:21:32.267Z,36.53
2022-10-14T17:24:02.906Z,38.78
2022-10-14T17:26:33.916Z,36.75
2022-10-14T17:29:04.673Z,33.08
2022-10-14T17:31:34.492Z,32.95
2022-10-14T17:34:04.074Z,34.08
2022-10-14T17:36:33.385Z,33.25
2022-10-14T17:39:02.442Z,32.97
2022-10-14T17:41:31.972Z,39.13
2022-10-14T17:44:02.205Z,30.95
2022-10-14T17:46:33.336Z,32.15
2022-10-14T17:49:04.134Z,29.45
2022-10-14T17:51:34.160Z,31.67
2022-10-14T17:54:05.105Z,30.73
2022-10-14T17:56:37.419Z,33.97
2022-10-14T17:59:08.438Z,31.35
2022-10-14T18:04:28.867Z,36.08
2022-10-14T18:06:58.838Z,32.80
2022-10-14T18:09:28.070Z,37.90
2022-10-14T18:12:13.453Z,39.80
2022-10-14T18:14:43.205Z,32.17
2022-10-14T18:17:14.227Z,33.15
2022-10-14T18:19:46.097Z,33.78
2022-10-14T18:22:17.522Z,37.05
2022-10-14T18:24:46.670Z,31.45
2022-10-14T18:27:15.667Z,32.92
2022-10-14T18:29:44.784Z,34.58
2022-10-14T18:32:15.295Z,30.77
2022-10-14T18:34:44.382Z,30.73
2022-10-14T18:37:14.756Z,33.55
2022-10-14T18:39:44.963Z,33.50
2022-10-14T18:42:17.129Z,34.03
2022-10-14T18:44:49.072Z,35.20
2022-10-14T18:47:19.624Z,33.78
2022-10-14T18:49:51.482Z,33.65
2022-10-14T18:52:21.412Z,34.95
2022-10-14T18:54:50.748Z,33.63
2022-10-14T18:57:19.867Z,35.25
2022-10-14T18:59:51.007Z,37.05
2022-10-14T19:02:21.954Z,39.50
2022-10-14T19:04:51.189Z,39.35
2022-10-14T19:07:20.375Z,35.33
2022-10-14T19:09:50.266Z,36.72
2022-10-14T19:12:37.238Z,38.72
2022-10-14T19:15:07.108Z,35.17
2022-10-14T19:17:37.673Z,38.28
2022-10-14T19:20:08.724Z,37.60
2022-10-14T19:22:44.966Z,35.72
2022-10-14T19:25:14.078Z,34.67
2022-10-14T19:27:43.168Z,35.33
2022-10-14T19:30:12.973Z,37.50
2022-10-14T19:32:43.593Z,36.10
2022-10-14T19:35:12.677Z,35.78
2022-10-14T19:37:41.758Z,34.88
2022-10-14T19:40:11.664Z,35.88
2022-10-14T19:42:40.746Z,37.25
2022-10-14T19:45:10.375Z,36.25
2022-10-14T19:47:39.693Z,36.95
2022-10-14T19:50:11.248Z,38.70
2022-10-14T19:52:40.373Z,38.03
2022-10-14T19:55:10.377Z,38.35
2022-10-14T19:57:39.357Z,38.92
2022-10-14T20:00:09.855Z,38.75
2022-10-14T20:05:10.173Z,38.53
2022-10-14T20:07:39.195Z,37.20
2022-10-14T20:10:09.176Z,37.55
2022-10-14T20:12:38.328Z,38.92
2022-10-14T20:16:35.223Z,36.30
2022-10-14T20:19:04.377Z,38.42
2022-10-14T20:21:33.553Z,37.03
2022-10-14T20:24:02.610Z,38.25
2022-10-14T20:26:31.723Z,35.65
2022-10-14T20:29:00.920Z,35.20
2022-10-14T20:31:30.104Z,36.25
2022-10-14T20:34:00.660Z,38.25
2022-10-14T20:36:29.799Z,38.35
2022-10-14T20:38:58.834Z,38.15
2022-10-14T20:41:28.873Z,36.75
2022-10-14T20:43:58.783Z,36.25
2022-10-14T20:46:28.029Z,35.45
2022-10-14T20:48:57.818Z,36.83
2022-10-14T20:51:28.796Z,34.20
2022-10-14T20:54:02.697Z,34.55
2022-10-14T20:56:35.667Z,33.83
2022-10-14T20:59:06.698Z,34.88
2022-10-14T21:01:37.724Z,34.28
2022-10-14T21:04:08.737Z,34.00
2022-10-14T21:06:42.586Z,32.75
2022-10-14T21:09:12.054Z,34.03
2022-10-14T21:11:41.801Z,32.88
2022-10-14T21:14:12.088Z,34.88
2022-10-14T21:16:42.520Z,32.30
2022-10-14T21:19:12.807Z,34.40
2022-10-14T21:21:45.568Z,33.33
2022-10-14T21:24:17.054Z,32.03
2022-10-14T21:26:48.108Z,37.17
2022-10-14T21:29:17.352Z,36.13
2022-10-14T21:31:46.484Z,33.70
2022-10-14T21:34:15.994Z,32.80
2022-10-14T21:36:46.647Z,32.10
2022-10-14T21:39:18.382Z,32.40
2022-10-14T21:41:47.709Z,33.50
2022-10-14T21:44:19.250Z,32.80
2022-10-14T21:46:49.106Z,32.03
2022-10-14T21:49:18.414Z,40.35
2022-10-14T21:51:48.947Z,31.85
2022-10-14T21:54:18.087Z,31.58
2022-10-14T21:56:47.151Z,30.20
2022-10-14T21:59:16.456Z,30.80
2022-10-14T22:01:45.533Z,30.70
2022-10-14T22:04:14.577Z,30.55
2022-10-14T22:06:43.728Z,29.27
2022-10-14T22:09:14.206Z,29.35
2022-10-14T22:11:43.603Z,28.95
2022-10-14T22:14:14.516Z,30.33
2022-10-14T22:16:43.666Z,27.75
2022-10-14T22:19:13.554Z,28.35
2022-10-14T22:21:45.232Z,29.92
2022-10-14T22:24:16.067Z,29.08
2022-10-14T22:26:45.219Z,31.20
2022-10-14T22:29:17.035Z,28.77
2022-10-14T22:31:46.903Z,28.13
2022-10-14T22:34:18.556Z,26.90
2022-10-14T22:36:47.581Z,29.67
2022-10-14T22:39:19.043Z,28.45
2022-10-14T22:41:48.126Z,27.60
2022-10-14T22:44:17.157Z,27.33
2022-10-14T22:46:46.796Z,28.67
2022-10-14T22:49:15.927Z,29.13
2022-10-14T22:51:45.007Z,27.37
2022-10-14T22:54:14.422Z,28.77
2022-10-14T22:56:44.976Z,29.77
2022-10-14T22:59:14.368Z,27.07
2022-10-14T23:01:44.670Z,26.23
2022-10-14T23:04:13.846Z,28.00
2022-10-14T23:06:45.134Z,29.47
2022-10-14T23:09:14.202Z,31.50
2022-10-14T23:11:44.796Z,30.60
2022-10-14T23:14:14.043Z,33.00
2022-10-14T23:16:43.347Z,32.23
2022-10-14T23:19:12.403Z,31.37
2022-10-14T23:21:41.747Z,31.17
2022-10-14T23:24:13.333Z,34.38
2022-10-14T23:26:43.949Z,33.77
2022-10-14T23:29:13.873Z,33.20
2022-10-14T23:31:43.264Z,36.37
2022-10-14T23:34:14.976Z,33.03
2022-10-14T23:36:44.484Z,33.20
2022-10-14T23:39:13.753Z,35.77
2022-10-14T23:41:45.005Z,33.73
2022-10-14T23:44:14.193Z,33.20
2022-10-14T23:46:43.222Z,33.40
2022-10-14T23:49:25.514Z,33.43
2022-10-14T23:51:55.649Z,32.97
2022-10-14T23:54:24.767Z,33.30
2022-10-14T23:56:55.489Z,34.90
2022-10-14T23:59:24.616Z,32.37
